Slide Mountain Weather observations

Data are for 10 minute period ending at time listed.
 Day   Time   Solar   Ave.   Ave.  Ave.  Vector  Max.    Baro.  
  of    of     Rad.   Air    Rel.  Wind   Wind   Wind   Press.  
Year   Day            Temp.  Hum.  Speed  Dir.   Gust           
2017   (PST)  Kw/m2    F      %     mph   deg.    mph     mb.   
-----------------------------------------------------------------
  57    2:50   0.00   11.0    91    0.1   339      0.1    701.8 
  57    3:00   0.00   11.0    91    0.1   339      0.1    701.7 
  57    3:10   0.00   11.0    91    0.1   339      0.1    701.5 
  57    3:20   0.00   10.8    91    0.1   339      0.3    701.3 
  57    3:30   0.00   10.6    91    0.1   339      0.2    701.3 
  57    3:40   0.00   10.4    91    0.1   339      0.3    701.3 
  57    3:50   0.00   10.1    90    0.1   339      0.3    701.3 
  57    4:00   0.00   10.0    90    0.1   339      0.5    701.3 
  57    4:10   0.00    9.9    90    0.0   339      0.4    701.2 
  57    4:20   0.00    9.7    90    0.1   339      0.4    701.1 
  57    4:30   0.00    9.5    90    0.1   339      0.6    700.9 
  57    4:40   0.00    9.2    90    0.1   339      0.7    701.0 
  57    4:50   0.00    9.1    90    0.1   339      0.6    701.0 
  57    5:00   0.00    8.8    90    0.1   339      0.6    700.7 
  57    5:10   0.00    8.5    90    0.1   339      0.6    700.5 
  57    5:20   0.00    8.3    90    0.0   339      0.5    700.2 
  57    5:30   0.00    8.3    90    0.1   339      0.8    700.2 
  57    5:40   0.00    8.2    90    0.1   339      0.6    700.2 
  57    5:50   0.00    8.2    90    0.1   339      0.3    700.1 
  57    6:00   0.00    8.1    90    0.1   339      0.5    700.2 
  57    6:10   0.00    8.1    90    0.1   339      0.5    700.2 
  57    6:20   0.00    8.3    90    0.1   339      0.4    700.3 
  57    6:30   0.00    8.3    90    0.0   339      0.3    700.3 
  57    6:40   0.00    8.3    90    0.1   339      0.3    700.4 
  57    6:50   0.01    8.4    90    0.1   339      0.5    700.3 
  57    7:00   0.02    8.6    90    0.1   339      0.6    700.1 
  57    7:10   0.03    8.8    90    0.1   339      0.6    700.0 
  57    7:20   0.03    9.0    90    0.1   339      0.4    700.0 
  57    7:30   0.04    9.1    90    0.1   339      0.6    699.9 
  57    7:40   0.04    9.4    90    0.0   339      0.6    699.8 
  57    7:50   0.06    9.8    90    0.1   339      0.6    699.8 
  57    8:00   0.12   10.1    90    0.1   339      0.7    699.9 
  57    8:10   0.18   10.3    91    0.1   339      0.6    699.9 
  57    8:20   0.24   10.4    91    0.0   339      0.6    699.9 
  57    8:30   0.29   10.6    91    0.1   339      0.8    699.8 
  57    8:40   0.33   10.9    91    0.0   339      0.7    700.0 
  57    8:50   0.36   11.3    91    0.0   339      0.6    700.0 
  57    9:00   0.38   11.6    91    0.1   339      0.9    699.9 
  57    9:10   0.41   12.0    91    0.1   339      0.7    699.8 
  57    9:20   0.43   12.2    91    0.1   339      0.7    699.9 
  57    9:30   0.46   12.3    91    0.1   339      0.7    699.8 
  57    9:40   0.48   12.3    91    0.0   339      0.5    699.6 
  57    9:50   0.50   12.2    91   15.7   340     46.5    699.6 
  57   10:00   0.52   12.3    91   38.4   340     50.2    699.5 
  57   10:10   0.54   12.7    91   42.9   340     50.5    699.5 
  57   10:20   0.56   13.0    92   46.0   340     52.6    699.5 
  57   10:30   0.57   13.2    92   46.7   340     59.4    699.3 
  57   10:40   0.58   13.5    92   54.4   340     68.1    698.8 
  57   10:50   0.59   13.6    92   59.5   340     71.5    698.6 
  57   11:00   0.61   13.7    92   59.1   340     69.9    698.8 
  57   11:10   0.62   13.7    92   52.2   340     67.0    699.0 
  57   11:20   0.61   13.8    92   50.8   340     66.3    699.1 
  57   11:30   0.64   14.0    92   53.1   340     70.2    698.9 
  57   11:40   0.61   14.0    92   54.8   340     69.4    698.8 
  57   11:50   0.63   14.2    92   51.7   340     71.8    698.8 
  57   12:00   0.65   14.6    92   54.7   340     69.6    698.6 
  57   12:10   0.67   14.8    92   57.5   340     68.1    698.5 
  57   12:20   0.59   14.5    91   51.7   340     64.8    698.6 
  57   12:30   0.65   14.2    91   51.5   340     68.9    698.7 
  57   12:40   0.69   14.4    92   52.1   340     66.2    698.5 
  57   12:50   0.66   14.9    92   52.7   340     65.9    698.1 
  57   13:00   0.69   15.3    92   54.0   340     69.0    697.8 
  57   13:10   0.60   15.6    92   56.6   340     71.8    697.5 
  57   13:20   0.63   15.8    92   57.2   340     69.8    697.2 
  57   13:30   0.62   15.6    92   60.3   350     73.6    697.0 
  57   13:40   0.62   15.4    92   63.6    22     77.6    696.8 
  57   13:50   0.53   15.1    92   62.1    16     77.7    696.8 
  57   14:00   0.59   15.0    92   66.5     6     75.1    696.6 
  57   14:10   0.39   14.9    92   67.9   342     75.9    696.5 
  57   14:20   0.36   14.3    92   67.7   339     76.8    696.4 
  57   14:30   0.32   14.2    92   67.0   333     74.7    696.5 
  57   14:40   0.26   14.1    92   65.4   333     75.2    696.5 
  57   14:50   0.29   14.1    92   67.1   339     76.0    696.4 
  57   15:00   0.37   14.3    92   65.2   338     74.1    696.5 
  57   15:10   0.23   14.4    92   62.1   338     75.7    696.5 
  57   15:20   0.18   14.5    92   57.3   341     73.2    696.6 
  57   15:30   0.14   14.6    92   53.5   345     71.2    696.7 
  57   15:40   0.14   14.7    92   56.5   343     72.4    696.6 
  57   15:50   0.11   14.5    92   58.5   338     75.0    696.5 
  57   16:00   0.09   14.3    92   53.2   338     73.8    696.5 
  57   16:10   0.11   14.2    92   55.1   336     73.6    696.4 
  57   16:20   0.09   14.2    92   63.8   343     75.9    696.1 
  57   16:30   0.05   14.0    92   59.0   335     72.7    696.1 
  57   16:40   0.03   13.9    92   58.5   332     75.4    696.1 
  57   16:50   0.05   13.7    92   57.3   335     76.1    696.0 
  57   17:00   0.04   13.6    92   54.5   344     73.9    695.9 
  57   17:10   0.03   13.6    92   57.5   341     72.2    695.7 
  57   17:20   0.01   13.5    92   52.7   339     73.4    695.7 
  57   17:30   0.01   13.4    92   61.0   342     74.9    695.5 
  57   17:40   0.01   13.2    92   58.3   340     73.8    695.7 
  57   17:50   0.00   13.0    92   59.6   350     69.9    695.5 
  57   18:00   0.00   12.8    92   59.5   339     73.2    695.5 
  57   18:10   0.00   12.7    92   60.7   344     73.0    695.4 
  57   18:20   0.00   12.5    92   61.4   348     76.1    695.3 
  57   18:30   0.00   12.4    91   61.7   345     75.1    695.2 
  57   18:40   0.00   12.3    91   56.7   353     72.7    695.1 
  57   18:50   0.00   12.2    91   56.9    24     73.5    694.6 
  57   19:00   0.00   12.1    91   60.2    33     73.5    694.3 
  57   19:10   0.00   12.1    91   59.9    63     76.6    694.4 
  57   19:20   0.00   12.1    91   60.6    64     75.8    694.3 
  57   19:30   0.00   11.9    91   61.7    49     72.6    694.4 
  57   19:40   0.00   11.8    91   59.6    50     73.7    694.4 
  57   19:50   0.00   11.7    91   61.6    60     75.8    694.2 
  57   20:00   0.00   11.6    91   59.6    60     73.9    694.2 
  57   20:10   0.00   11.6    91   62.5    64     74.9    694.0 
  57   20:20   0.00   11.6    91   55.6    51     70.3    694.4 
  57   20:30   0.00   11.7    91   53.6    35     69.4    694.6 
  57   20:40   0.00   11.8    91   52.0   325     66.6    694.9 
  57   20:50   0.00   12.0    91   49.5   325     61.9    695.0 
  57   21:00   0.00   12.0    91   54.3   323     70.1    694.8 
  57   21:10   0.00   12.0    91   51.7   312     66.0    695.0 
  57   21:20   0.00   12.0    91   53.0   316     68.6    695.0 
  57   21:30   0.00   11.9    91   59.2    11     73.4    694.6 
  57   21:40   0.00   11.9    91   50.7    11     69.9    695.0 
  57   21:50   0.00   11.9    91   44.0   326     65.9    695.1 
  57   22:00   0.00   12.0    91   47.0   326     62.3    695.0 
  57   22:10   0.00   12.0    91   45.8   323     67.1    695.0 
  57   22:20   0.00   12.1    91   45.6   321     63.2    695.1 
  57   22:30   0.00   12.2    91   43.5   321     63.0    695.2 
  57   22:40   0.00   12.3    91   48.5   321     66.1    695.0 
  57   22:50   0.00   12.3    91   40.4   317     55.5    695.5 
  57   23:00   0.00   12.4    91   42.3   317     57.3    695.2 
  57   23:10   0.00   12.4    91   51.0   318     65.6    694.8 
  57   23:20   0.00   12.1    91   56.7   345     71.4    694.6 
  57   23:30   0.00   11.8    91   53.4   328     71.9    694.7 
  57   23:40   0.00   11.4    91   56.2   322     69.9    694.5 
  57   23:50   0.00   11.0    91   49.2   304     65.1    694.7 
  58    0:00   0.00   10.8    91   52.7   315     68.2    694.5 
  58    0:10   0.00   10.6    90   56.1   326     70.8    694.4 
  58    0:20   0.00   10.4    90   59.6   344     71.5    694.3 
  58    0:30   0.00   10.1    90   60.4   338     71.5    694.2 
  58    0:40   0.00    9.8    90   63.7    10     72.1    693.8 
  58    0:50   0.00    9.2    90   65.6    57     72.4    693.5 
  58    1:00   0.00    8.7    90   64.8    42     75.6    693.7 
  58    1:10   0.00    8.4    90   63.4    39     72.8    693.8 
  58    1:20   0.00    8.5    90   54.4    24     71.4    694.1 
  58    1:30   0.00    8.7    90   57.5    35     73.4    694.0 
  58    1:40   0.00    8.8    90   60.6    35     73.1    694.0 
  58    1:50   0.00    8.9    90   47.4    10     65.0    694.7 
  58    2:00   0.00    8.9    90   43.5   331     57.0    694.9 
  58    2:10   0.00    9.0    90   45.3   317     58.5    694.7 
  58    2:20   0.00    9.0    90   45.2   308     59.0    694.7 
  58    2:30   0.00    9.1    90   43.0   308     50.0    694.8 
  58    2:40   0.00    9.1    90   41.8   308     50.2    695.0 

Return to Slide Mountain graphs page.


Western Regional Climate Center,wrcc@dri.edu